createdAt,value
2022-09-17T00:01:45.874Z,8.93
2022-09-17T00:04:15.697Z,9.03
2022-09-17T00:06:44.015Z,8.99
2022-09-17T00:09:13.629Z,8.97
2022-09-17T00:11:44.134Z,9.03
2022-09-17T00:14:17.012Z,9.06
2022-09-17T00:16:47.822Z,9.05
2022-09-17T00:19:21.313Z,8.99
2022-09-17T00:21:49.869Z,9.11
2022-09-17T00:24:20.574Z,9.15
2022-09-17T00:26:50.097Z,9.09
2022-09-17T00:29:18.801Z,9.11
2022-09-17T00:31:47.102Z,9.14
2022-09-17T00:34:15.400Z,9.10
2022-09-17T00:36:43.616Z,9.15
2022-09-17T00:39:15.583Z,9.19
2022-09-17T00:41:45.815Z,9.25
2022-09-17T00:44:48.148Z,9.26
2022-09-17T00:47:31.686Z,9.29
2022-09-17T00:50:07.945Z,9.26
2022-09-17T00:52:43.710Z,9.21
2022-09-17T00:55:23.813Z,9.18
2022-09-17T00:57:57.933Z,9.26
2022-09-17T01:00:27.091Z,9.29
2022-09-17T01:02:55.944Z,9.29
2022-09-17T01:05:34.412Z,9.28
2022-09-17T01:08:12.181Z,9.36
2022-09-17T01:11:11.897Z,9.34
2022-09-17T01:13:58.509Z,9.34
2022-09-17T01:16:37.131Z,9.41
2022-09-17T01:19:32.056Z,9.42
2022-09-17T01:22:09.070Z,9.40
2022-09-17T01:25:23.073Z,9.43
2022-09-17T01:28:34.088Z,9.34
2022-09-17T01:31:31.576Z,9.46
2022-09-17T01:34:09.448Z,9.50
2022-09-17T01:36:51.610Z,9.32
2022-09-17T01:39:37.076Z,9.37
2022-09-17T01:42:17.482Z,9.28
2022-09-17T01:44:54.957Z,9.24
2022-09-17T01:47:30.538Z,9.23
2022-09-17T01:50:06.017Z,9.29
2022-09-17T01:52:37.230Z,9.28
2022-09-17T01:55:09.935Z,9.24
2022-09-17T01:57:41.967Z,9.28
2022-09-17T02:00:14.611Z,9.31
2022-09-17T02:02:47.703Z,9.29
2022-09-17T02:05:23.052Z,9.31
2022-09-17T02:07:57.458Z,9.38
2022-09-17T02:10:30.807Z,9.47
2022-09-17T02:13:05.826Z,9.40
2022-09-17T02:15:38.766Z,9.48
2022-09-17T02:18:16.746Z,9.44
2022-09-17T02:20:49.722Z,9.40
2022-09-17T02:23:23.603Z,9.44
2022-09-17T02:25:58.517Z,9.50
2022-09-17T02:28:34.655Z,9.56
2022-09-17T02:31:02.921Z,9.54
2022-09-17T02:33:36.335Z,9.55
2022-09-17T02:36:05.381Z,9.61
2022-09-17T02:38:34.064Z,9.62
2022-09-17T02:41:19.419Z,9.60
2022-09-17T02:44:01.816Z,9.57
2022-09-17T02:46:53.686Z,9.65
2022-09-17T02:49:50.127Z,9.60
2022-09-17T02:52:33.322Z,9.57
2022-09-17T02:55:13.180Z,9.60
2022-09-17T02:57:47.715Z,9.68
2022-09-17T03:00:20.887Z,9.61
2022-09-17T03:02:57.308Z,9.64
2022-09-17T03:05:28.720Z,9.67
2022-09-17T03:07:57.401Z,9.56
2022-09-17T03:10:30.681Z,9.65
2022-09-17T03:12:58.925Z,9.68
2022-09-17T03:15:28.294Z,9.64
2022-09-17T03:17:56.507Z,9.58
2022-09-17T03:20:26.155Z,9.63
2022-09-17T03:22:54.371Z,9.63
2022-09-17T03:25:22.761Z,9.66
2022-09-17T03:27:52.335Z,9.63
2022-09-17T03:30:21.066Z,9.72
2022-09-17T03:32:49.236Z,9.65
2022-09-17T03:35:17.645Z,9.62
2022-09-17T03:37:47.379Z,9.66
2022-09-17T03:40:15.833Z,9.66
2022-09-17T03:42:44.106Z,9.71
2022-09-17T03:45:12.565Z,9.70
2022-09-17T03:47:40.798Z,9.64
2022-09-17T03:50:10.045Z,9.64
2022-09-17T03:52:38.380Z,9.72
2022-09-17T03:55:09.109Z,9.68
2022-09-17T03:57:37.333Z,9.52
2022-09-17T04:00:07.485Z,9.63
2022-09-17T04:02:39.988Z,9.72
2022-09-17T04:05:10.520Z,9.61
2022-09-17T04:07:40.860Z,9.70
2022-09-17T04:10:11.134Z,9.66
2022-09-17T04:12:40.388Z,9.67
2022-09-17T04:15:09.948Z,9.59
2022-09-17T04:17:38.401Z,9.69
2022-09-17T04:20:08.070Z,9.66
2022-09-17T04:22:38.665Z,9.63
2022-09-17T04:25:11.168Z,9.67
2022-09-17T04:27:39.293Z,9.66
2022-09-17T04:30:09.063Z,9.61
2022-09-17T04:32:37.496Z,9.70
2022-09-17T04:35:06.291Z,9.70
2022-09-17T04:37:34.460Z,9.77
2022-09-17T04:40:07.559Z,9.65
2022-09-17T04:42:37.701Z,9.59
2022-09-17T04:45:07.624Z,9.66
2022-09-17T04:47:39.015Z,9.65
2022-09-17T04:50:08.151Z,9.58
2022-09-17T04:52:36.325Z,9.62
2022-09-17T04:55:05.416Z,9.59
2022-09-17T04:57:33.536Z,9.64
2022-09-17T05:00:03.887Z,9.68
2022-09-17T05:02:32.170Z,9.68
2022-09-17T05:05:00.349Z,9.68
2022-09-17T05:07:28.536Z,9.62
2022-09-17T05:09:56.947Z,9.63
2022-09-17T05:12:25.128Z,9.79
2022-09-17T05:14:53.287Z,9.67
2022-09-17T05:17:22.781Z,9.63
2022-09-17T05:19:51.311Z,9.70
2022-09-17T05:22:21.487Z,9.75
2022-09-17T05:24:49.979Z,9.78
2022-09-17T05:27:18.470Z,9.75
2022-09-17T05:29:46.675Z,9.77
2022-09-17T05:32:14.830Z,9.82
2022-09-17T05:34:44.367Z,9.76
2022-09-17T05:37:12.560Z,9.83
2022-09-17T05:39:41.024Z,9.85
2022-09-17T05:42:09.284Z,9.84
2022-09-17T05:44:37.472Z,9.82
2022-09-17T05:47:06.177Z,9.89
2022-09-17T05:49:34.344Z,9.73
2022-09-17T05:52:04.486Z,9.87
2022-09-17T05:54:32.701Z,9.82
2022-09-17T05:57:01.701Z,9.82
2022-09-17T05:59:29.869Z,9.88
2022-09-17T06:01:58.047Z,9.92
2022-09-17T06:04:26.824Z,9.99
2022-09-17T06:06:55.025Z,9.95
2022-09-17T06:09:24.664Z,9.93
2022-09-17T06:11:53.219Z,9.88
2022-09-17T06:14:21.534Z,9.91
2022-09-17T06:16:49.652Z,9.93
2022-09-17T06:19:17.846Z,9.92
2022-09-17T06:21:47.895Z,10.07
2022-09-17T06:24:16.335Z,9.95
2022-09-17T06:26:45.865Z,10.18
2022-09-17T06:29:15.146Z,10.07
2022-09-17T06:31:44.638Z,9.99
2022-09-17T06:34:13.255Z,9.87
2022-09-17T06:36:41.583Z,9.95
2022-09-17T06:39:11.563Z,9.78
2022-09-17T06:41:41.948Z,9.70
2022-09-17T06:44:11.531Z,9.83
2022-09-17T06:46:39.857Z,9.81
2022-09-17T06:49:08.297Z,9.94
2022-09-17T06:51:36.544Z,9.93
2022-09-17T06:54:04.987Z,9.92
2022-09-17T06:56:34.304Z,10.12
2022-09-17T06:59:02.954Z,10.10
2022-09-17T07:01:32.738Z,10.23
2022-09-17T07:04:00.939Z,10.38
2022-09-17T07:06:29.115Z,10.35
2022-09-17T07:08:57.287Z,10.29
2022-09-17T07:11:25.576Z,10.24
2022-09-17T07:13:53.775Z,10.24
2022-09-17T07:16:22.016Z,10.38
2022-09-17T07:18:51.572Z,10.36
2022-09-17T07:21:20.282Z,10.48
2022-09-17T07:23:48.456Z,10.41
2022-09-17T07:26:17.444Z,10.36
2022-09-17T07:28:45.856Z,10.53
2022-09-17T07:31:16.689Z,10.59
2022-09-17T07:33:45.695Z,10.76
2022-09-17T07:36:17.781Z,10.94
2022-09-17T07:38:47.186Z,11.10
2022-09-17T07:41:17.397Z,11.28
2022-09-17T07:43:46.363Z,11.08
2022-09-17T07:46:17.532Z,11.27
2022-09-17T07:48:46.475Z,11.27
2022-09-17T07:51:18.877Z,11.16
2022-09-17T07:53:47.666Z,11.05
2022-09-17T07:56:16.194Z,11.10
2022-09-17T07:58:44.639Z,11.15
2022-09-17T08:01:16.682Z,11.29
2022-09-17T08:03:50.693Z,11.17
2022-09-17T08:06:23.225Z,11.14
2022-09-17T08:08:51.513Z,11.17
2022-09-17T08:14:13.773Z,11.16
2022-09-17T08:16:42.017Z,11.26
2022-09-17T08:19:10.944Z,11.03
2022-09-17T08:21:40.629Z,11.25
2022-09-17T08:24:09.030Z,11.32
2022-09-17T08:26:38.047Z,11.46
2022-09-17T08:29:07.302Z,11.77
2022-09-17T08:31:35.478Z,11.88
2022-09-17T08:34:07.757Z,11.86
2022-09-17T08:36:36.779Z,11.88
2022-09-17T08:39:06.511Z,12.11
2022-09-17T08:41:48.131Z,11.97
2022-09-17T08:44:25.516Z,12.22
2022-09-17T08:47:01.731Z,12.29
2022-09-17T08:49:37.110Z,12.12
2022-09-17T08:52:36.451Z,12.12
2022-09-17T08:55:20.998Z,12.30
2022-09-17T08:58:04.084Z,12.44
2022-09-17T09:00:41.151Z,12.80
2022-09-17T09:03:30.258Z,13.01
2022-09-17T09:06:01.476Z,12.93
2022-09-17T09:08:35.310Z,13.21
2022-09-17T09:11:08.677Z,13.25
2022-09-17T09:13:43.148Z,13.51
2022-09-17T09:16:18.114Z,13.41
2022-09-17T09:18:49.666Z,13.14
2022-09-17T09:21:28.164Z,13.03
2022-09-17T09:23:58.920Z,12.69
2022-09-17T09:26:41.654Z,12.80
2022-09-17T09:29:24.133Z,12.59
2022-09-17T09:32:16.756Z,12.62
2022-09-17T09:34:47.538Z,12.81
2022-09-17T09:37:22.492Z,12.86
2022-09-17T09:39:54.852Z,12.81
2022-09-17T09:42:33.511Z,12.66
2022-09-17T09:45:15.120Z,12.81
2022-09-17T09:47:58.573Z,12.78
2022-09-17T09:51:04.620Z,12.49
2022-09-17T09:53:43.374Z,12.87
2022-09-17T09:56:34.828Z,13.20
2022-09-17T09:59:09.533Z,13.16
2022-09-17T10:01:42.663Z,13.23
2022-09-17T10:04:20.060Z,13.17
2022-09-17T12:24:43.348Z,11.35
2022-09-17T12:27:24.355Z,11.85
2022-09-17T12:30:15.716Z,11.88
2022-09-17T12:33:14.637Z,12.03
2022-09-17T12:36:29.644Z,12.07
2022-09-17T12:39:52.090Z,12.02
2022-09-17T12:42:43.296Z,11.86
2022-09-17T12:45:38.563Z,11.64
2022-09-17T12:48:51.993Z,11.40
2022-09-17T12:51:32.934Z,11.28
2022-09-17T12:54:17.611Z,10.97
2022-09-17T12:56:59.863Z,10.92
2022-09-17T12:59:34.170Z,10.58
2022-09-17T13:02:10.442Z,10.79
2022-09-17T13:05:18.272Z,10.49
2022-09-17T13:08:23.065Z,10.74
2022-09-17T13:11:35.949Z,10.63
2022-09-17T13:14:19.277Z,10.49
2022-09-17T13:16:57.155Z,10.74
2022-09-17T13:19:43.109Z,10.80
2022-09-17T13:22:19.190Z,11.16
2022-09-17T13:24:49.187Z,11.00
2022-09-17T13:27:25.847Z,11.09
2022-09-17T13:30:05.142Z,11.15
2022-09-17T13:32:55.183Z,11.09
2022-09-17T13:35:50.949Z,11.23
2022-09-17T13:38:23.835Z,11.72
2022-09-17T13:40:53.872Z,11.93
2022-09-17T13:43:28.155Z,12.07
2022-09-17T13:46:17.051Z,11.72
2022-09-17T13:48:52.884Z,12.35
2022-09-17T13:52:00.898Z,12.34
2022-09-17T13:54:40.457Z,12.38
2022-09-17T13:57:16.262Z,12.67
2022-09-17T14:00:00.782Z,12.36
2022-09-17T14:02:47.373Z,12.84
2022-09-17T14:05:35.797Z,13.20
2022-09-17T14:08:29.171Z,13.29
2022-09-17T14:11:03.543Z,13.16
2022-09-17T14:13:53.674Z,13.48
2022-09-17T14:16:48.327Z,13.50
2022-09-17T14:19:27.216Z,13.46
2022-09-17T14:22:15.354Z,13.66
2022-09-17T14:24:54.739Z,13.49
2022-09-17T14:27:52.582Z,13.72
2022-09-17T14:30:23.120Z,14.00
2022-09-17T14:33:04.026Z,14.12
2022-09-17T14:35:38.729Z,14.10
2022-09-17T14:38:15.372Z,13.95
2022-09-17T14:40:47.096Z,13.48
2022-09-17T14:43:22.399Z,13.14
2022-09-17T14:45:53.893Z,13.24
2022-09-17T14:48:30.929Z,13.22
2022-09-17T14:51:28.381Z,13.58
2022-09-17T14:54:26.583Z,14.09
2022-09-17T14:57:01.566Z,14.44
2022-09-17T14:59:43.866Z,14.02
2022-09-17T15:02:41.388Z,14.03
2022-09-17T15:05:23.656Z,14.26
2022-09-17T15:07:52.127Z,14.45
2022-09-17T15:10:23.566Z,14.28
2022-09-17T15:12:52.657Z,14.23
2022-09-17T15:15:24.584Z,14.09
2022-09-17T15:17:53.775Z,14.56
2022-09-17T15:20:25.142Z,14.58
2022-09-17T15:23:04.721Z,14.43
2022-09-17T15:25:36.130Z,14.42
2022-09-17T15:28:15.657Z,14.43
2022-09-17T15:30:45.720Z,14.23
2022-09-17T15:33:15.282Z,14.31
2022-09-17T15:36:00.776Z,14.40
2022-09-17T15:38:32.933Z,14.51
2022-09-17T15:41:29.720Z,14.47
2022-09-17T15:44:28.930Z,14.73
2022-09-17T15:47:49.261Z,15.07
2022-09-17T15:50:21.085Z,15.15
2022-09-17T15:52:51.388Z,15.04
2022-09-17T15:55:36.006Z,14.82
2022-09-17T15:58:22.436Z,14.64
2022-09-17T16:01:51.137Z,14.73
2022-09-17T16:04:31.518Z,14.69
2022-09-17T16:07:33.124Z,14.32
2022-09-17T16:10:01.547Z,14.43
2022-09-17T16:12:30.120Z,14.34
2022-09-17T16:15:01.785Z,13.81
2022-09-17T16:17:42.932Z,14.05
2022-09-17T16:20:17.570Z,13.80
2022-09-17T16:22:48.364Z,13.96
2022-09-17T16:25:17.855Z,13.86
2022-09-17T16:27:51.390Z,14.04
2022-09-17T16:30:23.544Z,13.84
2022-09-17T16:32:53.716Z,13.88
2022-09-17T16:35:25.047Z,13.55
2022-09-17T16:37:55.825Z,13.49
2022-09-17T16:40:27.938Z,13.56
2022-09-17T16:42:56.853Z,13.45
2022-09-17T16:45:28.971Z,13.54
2022-09-17T16:47:57.915Z,13.51
2022-09-17T16:50:27.088Z,13.35
2022-09-17T16:52:55.575Z,13.38
2022-09-17T16:55:24.479Z,13.29
2022-09-17T16:57:53.109Z,13.30
2022-09-17T17:00:22.555Z,13.20
2022-09-17T17:02:57.487Z,13.13
2022-09-17T17:05:28.127Z,13.26
2022-09-17T17:07:56.885Z,13.13
2022-09-17T17:10:26.478Z,13.24
2022-09-17T17:12:55.220Z,13.04
2022-09-17T17:15:23.925Z,12.94
2022-09-17T17:17:52.581Z,12.90
2022-09-17T17:20:22.901Z,12.81
2022-09-17T17:22:51.944Z,12.79
2022-09-17T17:25:20.461Z,12.76
2022-09-17T17:27:49.011Z,12.72
2022-09-17T17:30:18.545Z,12.77
2022-09-17T17:32:52.168Z,12.67
2022-09-17T17:35:23.618Z,12.51
2022-09-17T17:37:52.175Z,12.30
2022-09-17T17:40:20.736Z,12.40
2022-09-17T17:42:54.228Z,12.17
2022-09-17T17:45:23.281Z,12.27
2022-09-17T17:47:53.204Z,12.11
2022-09-17T17:50:22.901Z,12.10
2022-09-17T17:52:51.192Z,12.07
2022-09-17T17:55:19.469Z,11.83
2022-09-17T17:57:47.823Z,11.90
2022-09-17T18:00:18.319Z,11.73
2022-09-17T18:02:46.728Z,11.78
2022-09-17T18:05:15.339Z,11.70
2022-09-17T18:07:45.008Z,11.58
2022-09-17T18:10:13.859Z,11.51
2022-09-17T18:12:50.013Z,11.62
2022-09-17T18:15:18.573Z,11.44
2022-09-17T18:17:48.137Z,11.55
2022-09-17T18:20:18.430Z,11.44
2022-09-17T18:22:48.662Z,11.45
2022-09-17T18:25:17.405Z,11.55
2022-09-17T18:27:45.953Z,11.71
2022-09-17T18:30:15.774Z,11.62
2022-09-17T18:32:44.304Z,11.75
2022-09-17T18:35:12.980Z,11.45
2022-09-17T18:37:41.798Z,11.57
2022-09-17T18:40:12.884Z,11.41
2022-09-17T18:42:41.492Z,11.34
2022-09-17T18:45:11.481Z,11.21
2022-09-17T18:47:39.913Z,11.38
2022-09-17T18:50:09.323Z,11.41
2022-09-17T18:52:38.005Z,11.42
2022-09-17T18:55:07.933Z,11.54
2022-09-17T18:57:37.924Z,11.42
2022-09-17T19:00:09.413Z,11.54
2022-09-17T19:02:38.528Z,11.64
2022-09-17T19:05:08.268Z,11.61
2022-09-17T19:07:37.040Z,11.62
2022-09-17T19:10:06.398Z,11.69
2022-09-17T19:12:34.825Z,11.71
2022-09-17T19:15:05.628Z,11.63
2022-09-17T19:17:33.964Z,11.60
2022-09-17T19:20:03.462Z,11.54
2022-09-17T19:22:32.468Z,11.68
2022-09-17T19:25:01.196Z,11.62
2022-09-17T19:27:31.323Z,11.65
2022-09-17T19:30:00.501Z,11.59
2022-09-17T19:32:31.906Z,11.48
2022-09-17T19:35:00.890Z,11.49
2022-09-17T19:37:29.512Z,11.55
2022-09-17T19:39:57.948Z,11.44
2022-09-17T19:42:26.720Z,11.44
2022-09-17T19:44:55.292Z,11.45
2022-09-17T19:47:24.093Z,11.39
2022-09-17T19:49:54.266Z,11.41
2022-09-17T19:52:22.860Z,11.34
2022-09-17T19:54:51.329Z,11.35
2022-09-17T19:57:20.607Z,11.33
2022-09-17T19:59:48.883Z,11.27
2022-09-17T20:02:17.831Z,11.44
2022-09-17T20:04:46.891Z,11.35
2022-09-17T20:07:16.887Z,11.36
2022-09-17T20:09:46.031Z,11.41
2022-09-17T20:12:14.463Z,11.06
2022-09-17T20:14:43.180Z,11.10
2022-09-17T20:17:12.324Z,11.19
2022-09-17T20:19:41.265Z,11.01
2022-09-17T20:22:09.674Z,11.17
2022-09-17T20:24:39.830Z,11.13
2022-09-17T20:27:08.202Z,11.17
2022-09-17T20:29:38.083Z,11.03
2022-09-17T20:32:06.838Z,11.10
2022-09-17T20:34:35.564Z,10.99
2022-09-17T20:37:13.145Z,10.97
2022-09-17T20:39:43.625Z,10.98
2022-09-17T20:42:12.023Z,10.93
2022-09-17T20:44:40.199Z,11.04
2022-09-17T20:47:08.461Z,11.05
2022-09-17T20:49:36.964Z,11.04
2022-09-17T20:52:05.685Z,10.82
2022-09-17T20:54:33.907Z,10.82
2022-09-17T20:57:03.563Z,10.88
2022-09-17T20:59:50.454Z,10.84
2022-09-17T21:02:20.190Z,10.89
2022-09-17T21:04:49.703Z,10.69
2022-09-17T21:07:18.461Z,10.70
2022-09-17T21:09:46.867Z,10.82
2022-09-17T21:12:16.416Z,10.76
2022-09-17T21:14:44.615Z,10.70
2022-09-17T21:17:12.752Z,10.73
2022-09-17T21:19:40.986Z,10.74
2022-09-17T21:22:09.157Z,10.62
2022-09-17T21:24:37.653Z,10.69
2022-09-17T21:27:07.226Z,10.73
2022-09-17T21:29:37.079Z,10.75
2022-09-17T21:32:05.752Z,10.71
2022-09-17T21:34:33.960Z,10.70
2022-09-17T21:37:04.808Z,10.68
2022-09-17T21:39:35.446Z,10.78
2022-09-17T21:42:04.054Z,10.75
2022-09-17T21:44:32.322Z,10.75
2022-09-17T21:47:01.920Z,10.76
2022-09-17T21:49:30.126Z,10.79
2022-09-17T21:51:58.639Z,10.86
2022-09-17T21:54:26.977Z,10.79
2022-09-17T21:56:55.968Z,10.79
2022-09-17T21:59:24.203Z,10.94
2022-09-17T22:01:52.518Z,10.89
2022-09-17T22:04:23.187Z,10.94
2022-09-17T22:06:53.144Z,10.86
2022-09-17T22:09:24.150Z,10.77
2022-09-17T22:11:53.731Z,10.93
2022-09-17T22:14:24.732Z,10.79
2022-09-17T22:16:56.782Z,10.73
2022-09-17T22:19:27.453Z,10.85
2022-09-17T22:21:57.376Z,10.87
2022-09-17T22:24:26.186Z,10.86
2022-09-17T22:26:58.039Z,10.74
2022-09-17T22:29:30.219Z,10.76
2022-09-17T22:31:58.900Z,10.80
2022-09-17T22:34:29.706Z,10.76
2022-09-17T22:37:00.051Z,10.72
2022-09-17T22:39:28.478Z,10.70
2022-09-17T22:41:57.032Z,10.71
2022-09-17T22:44:25.456Z,10.76
2022-09-17T22:46:54.130Z,10.68
2022-09-17T22:49:22.741Z,10.72
2022-09-17T22:51:52.910Z,10.64
2022-09-17T22:54:21.533Z,10.65
2022-09-17T22:56:50.309Z,10.70
2022-09-17T22:59:19.543Z,10.64
2022-09-17T23:01:48.056Z,10.67
2022-09-17T23:04:16.967Z,10.65
2022-09-17T23:06:45.640Z,10.60
2022-09-17T23:09:15.637Z,10.73
2022-09-17T23:11:46.455Z,10.70
2022-09-17T23:14:17.220Z,10.64
2022-09-17T23:16:48.159Z,10.69
2022-09-17T23:19:19.352Z,10.55
2022-09-17T23:21:47.964Z,10.63
2022-09-17T23:24:22.700Z,10.61
2022-09-17T23:26:52.349Z,10.64
2022-09-17T23:29:20.922Z,10.64
2022-09-17T23:31:49.124Z,10.56
2022-09-17T23:34:17.664Z,10.65
2022-09-17T23:36:47.406Z,10.65
2022-09-17T23:39:17.582Z,10.70
2022-09-17T23:41:47.901Z,10.62
2022-09-17T23:44:16.568Z,10.49
2022-09-17T23:46:46.561Z,10.52
2022-09-17T23:49:16.106Z,10.56
2022-09-17T23:51:45.192Z,10.52
2022-09-17T23:54:13.674Z,10.56
2022-09-17T23:56:43.493Z,10.33
2022-09-17T23:59:12.540Z,10.47
